Bei Facebook empfehlenBei Twitter postenGoogle plusPinterest

Das Wetter im Erzgebirge am 29.06.2016

Wetter und Klima am 29.06.2016 Holzhau im Erzgebirge (630m ü.NN)
Letzte gemessene Temperatur und Uhrzeit der Messung23:45:00 Uhr12.40 °C
Temperatur (Maximum / Höchstwert) und Uhrzeit der Messung17:30:00 Uhr24.90 °C
Temperatur (Minimum / Tiefstwert) und Uhrzeit der Messung00:15:0012.00 °C
Errechneter Absolutwert der Temperaturschwankungen zwischen Tmin und Tmax des Tages12.90 K
Errechnete Tagesmitteltemperatur18.26875 °C
Gesamt - Niederschlag des Tages (in flüssiger Form)1.04 Liter / m²
Luftdruck (Maximum / Höchstwert) und Zeitpunkt der Messung00:15:00 Uhr1013.00 hPa
Luftdruck (Minimum / Tiefstwert) und Zeitpunkt der Messung05:15:00 Uhr1010.20 hPa
Errechneter Absolutwert der Luftdruckschwankungen des Tages2.80 hPa
Höchste gemessene Windgeschwindigkeit und Uhrzeit der Messung23:45:00 Uhr0.00 km/h
Errechnete Windhäufigkeit in Relation zu den Messwerten des Tages0.00000 %
Niedrigste Windkühle (Windchill) und Zeitpunkt der Messung00:15:00 Uhr12.00 °C
Taupunkt (Maximum / Höchstwert) und Uhrzeit der Messung09:30:00 Uhr16.30 °C
Taupunkt (Minimum / Tiefstwert) und Uhrzeit der Messung23:45:009.60 °C
Anzahl der automatisch eingelesenen Messwerte 96

Detaillierte Wetter- und Klima- Messwerte für den 29.06.2016 in Holzhau im Erzgebirge (630m ü.NN)
ZeitTemperaturLuftdruckRel. LuftfeuchteWindWindrichtungWindchillTaupunktNiederschlag l/m²
23:45:0012.40 °C1012.10 hPa83.00 %9.60 °C1.04
23:30:0012.70 °C1012.10 hPa83.00 %9.90 °C1.04
23:15:0013.00 °C1012.10 hPa81.00 %9.80 °C1.04
23:00:0013.30 °C1012.20 hPa80.00 %9.90 °C1.04
22:45:0013.80 °C1012.20 hPa79.00 %10.20 °C1.04
22:30:0014.20 °C1012.20 hPa78.00 %10.40 °C1.04
22:15:0014.80 °C1012.00 hPa76.00 %10.60 °C1.04
22:00:0015.30 °C1012.00 hPa74.00 %10.70 °C1.04
21:45:0016.10 °C1011.90 hPa72.00 %11.10 °C1.04
21:30:0016.90 °C1011.60 hPa69.00 %11.20 °C1.04
21:15:0018.10 °C1011.80 hPa66.00 %11.70 °C1.04
21:00:0019.30 °C1011.70 hPa63.00 %12.10 °C1.04
20:45:0020.40 °C1011.50 hPa62.00 %12.90 °C1.04
20:30:0021.00 °C1011.50 hPa61.00 %13.20 °C1.04
20:15:0021.10 °C1011.40 hPa61.00 %13.30 °C1.04
20:00:0021.30 °C1011.40 hPa58.00 %12.70 °C1.04
19:45:0021.90 °C1011.50 hPa56.00 %12.70 °C1.04
19:30:0022.90 °C1011.40 hPa55.00 %13.40 °C1.04
19:15:0023.40 °C1011.20 hPa55.00 %13.80 °C1.04
19:00:0023.60 °C1011.00 hPa56.00 %14.30 °C1.04
18:45:0023.50 °C1011.10 hPa56.00 %14.20 °C1.04
18:30:0023.40 °C1010.90 hPa56.00 %14.10 °C1.04
18:15:0023.20 °C1011.00 hPa57.00 %14.20 °C1.04
18:00:0023.50 °C1011.30 hPa53.00 %13.40 °C1.04
17:45:0024.40 °C1011.20 hPa54.00 %14.50 °C1.04
17:30:0024.90 °C1011.40 hPa54.00 %15.00 °C1.04
17:15:0024.40 °C1011.50 hPa55.00 %14.80 °C1.04
17:00:0024.40 °C1011.60 hPa56.00 %15.10 °C1.04
16:45:0023.40 °C1011.70 hPa56.00 %14.10 °C1.04
16:30:0024.40 °C1011.40 hPa56.00 %15.10 °C1.04
16:15:0024.40 °C1011.60 hPa54.00 %14.50 °C1.04
16:00:0024.40 °C1011.60 hPa54.00 %14.50 °C1.04
15:45:0024.10 °C1011.50 hPa54.00 %14.20 °C1.04
15:30:0024.30 °C1011.40 hPa56.00 %15.00 °C1.04
15:15:0024.00 °C1011.50 hPa57.00 %15.00 °C1.04
15:00:0024.10 °C1011.50 hPa55.00 %14.50 °C1.04
14:45:0024.40 °C1011.50 hPa57.00 %15.30 °C1.04
14:30:0023.40 °C1011.50 hPa56.00 %14.10 °C1.04
14:15:0022.80 °C1011.50 hPa59.00 %14.40 °C1.04
14:00:0022.80 °C1011.80 hPa57.00 %13.80 °C1.04
13:45:0022.80 °C1011.90 hPa61.00 %14.90 °C1.04
13:30:0021.90 °C1011.80 hPa62.00 %14.30 °C1.04
13:15:0021.90 °C1011.70 hPa68.00 %15.70 °C1.04
13:00:0021.20 °C1011.90 hPa66.00 %14.60 °C1.04
12:45:0022.80 °C1011.90 hPa62.00 %15.10 °C1.04
12:30:0022.50 °C1011.60 hPa63.00 %15.10 °C1.04
12:15:0021.90 °C1011.40 hPa62.00 %14.30 °C1.04
12:00:0021.30 °C1011.40 hPa66.00 %14.70 °C1.04
11:45:0021.60 °C1011.30 hPa62.00 %14.00 °C1.04
11:30:0021.70 °C1011.30 hPa64.00 %14.60 °C1.04
11:15:0021.60 °C1011.20 hPa67.00 %15.20 °C1.04
11:00:0020.80 °C1011.10 hPa70.00 %15.10 °C1.04
10:45:0021.00 °C1010.80 hPa74.00 %16.20 °C1.04
10:30:0020.40 °C1010.70 hPa77.00 %16.20 °C1.04
10:15:0019.90 °C1010.70 hPa79.00 %16.20 °C1.04
10:00:0019.30 °C1010.90 hPa80.00 %15.80 °C1.04
09:45:0019.00 °C1010.80 hPa81.00 %15.70 °C1.04
09:30:0019.10 °C1011.00 hPa84.00 %16.30 °C1.04
09:15:0018.50 °C1011.10 hPa86.00 %16.10 °C1.04
09:00:0017.90 °C1011.00 hPa88.00 %15.90 °C1.04
08:45:0017.50 °C1010.90 hPa90.00 %15.80 °C1.04
08:30:0016.90 °C1010.80 hPa92.00 %15.60 °C1.04
08:15:0015.80 °C1010.70 hPa93.00 %14.70 °C1.04
08:00:0014.80 °C1010.80 hPa92.00 %13.50 °C1.04
07:45:0014.20 °C1010.70 hPa91.00 %12.80 °C1.04
07:30:0013.90 °C1010.60 hPa91.00 %12.50 °C1.04
07:15:0013.90 °C1010.70 hPa91.00 %12.50 °C1.04
07:00:0013.90 °C1010.80 hPa90.00 %12.30 °C0.52
06:45:0013.90 °C1010.70 hPa89.00 %12.10 °C0.52
06:30:0014.30 °C1010.80 hPa88.00 %12.30 °C0.52
06:15:0014.90 °C1010.90 hPa88.00 %12.90 °C 
06:00:0014.90 °C1011.10 hPa89.00 %13.10 °C 
05:45:0014.90 °C1010.40 hPa89.00 %13.10 °C 
05:30:0014.90 °C1010.30 hPa89.00 %13.10 °C 
05:15:0014.60 °C1010.20 hPa90.00 %13.00 °C 
05:00:0014.30 °C1010.20 hPa90.00 %12.70 °C 
04:45:0014.30 °C1010.40 hPa90.00 %12.70 °C 
04:30:0014.40 °C1010.70 hPa89.00 %12.60 °C 
04:15:0014.40 °C1010.80 hPa89.00 %12.60 °C 
04:00:0014.40 °C1010.90 hPa90.00 %12.80 °C 
03:45:0014.20 °C1011.10 hPa90.00 %12.60 °C 
03:30:0014.00 °C1011.10 hPa90.00 %12.40 °C 
03:15:0013.90 °C1011.10 hPa90.00 %12.30 °C 
03:00:0013.60 °C1011.30 hPa90.00 %12.00 °C 
02:45:0013.30 °C1011.50 hPa90.00 %11.70 °C 
02:30:0013.00 °C1011.90 hPa90.00 %11.40 °C 
02:15:0012.90 °C1012.00 hPa90.00 %11.30 °C 
02:00:0013.00 °C1012.30 hPa90.00 %11.40 °C 
01:45:0012.90 °C1012.30 hPa90.00 %11.30 °C 
01:30:0012.80 °C1012.40 hPa90.00 %11.20 °C 
01:15:0012.70 °C1012.40 hPa90.00 %11.10 °C 
01:00:0012.60 °C1012.70 hPa90.00 %11.00 °C 
00:45:0012.50 °C1012.80 hPa90.00 %10.90 °C 
00:30:0012.30 °C1012.80 hPa90.00 %10.70 °C 
00:15:0012.00 °C1013.00 hPa89.00 %10.20 °C 
00:00:0012.20 °C1013.00 hPa89.00 %10.40 °C 

Permanenter Link zu dieser Seite: Wetter im Erzgebirge am 29.06.2016
Performance-Info: Die Erstellung der Seite / Statistik(en) / Tabelle(n) erforderte 5 Datenbankserver-Abfrage(n) und dauerte 124 Millisekunden. (Dieser Messwert ist von der Gesamt-Auslastung des Servers abhängig.)
Erzgebirge - Wetter | Erzgebirge - Wetter (Mobilgeräte) | Komplette Klimadatenbank